Time;durP1;ratioP1;P1;durP2;ratioP2;P2;SDS_P1;SDS_P2;PMS_P1;PMS_P2;Temp;Humidity;BMP_temperature;BMP_pressure;BME280_temperature;BME280_humidity;BME280_pressure;Samples;Min_cycle;Max_cycle;Signal;HPM_P1;HPM_P2
2022/07/26 00:02:22;;;;;;;10.17;3.00;;;;;;;17.38;77.91;101177.13;5079325;28;20206;-81
2022/07/26 00:04:47;;;;;;;8.60;2.80;;;;;;;17.36;77.84;101179.28;5080317;28;20136;-82
2022/07/26 00:07:13;;;;;;;11.20;3.33;;;;;;;17.38;77.84;101185.34;5079423;28;20048;-82
2022/07/26 00:09:38;;;;;;;8.67;3.23;;;;;;;17.40;78.17;101185.09;5079509;28;20043;-82
2022/07/26 00:12:04;;;;;;;9.27;3.17;;;;;;;17.41;77.92;101185.91;5079861;28;20162;-82
2022/07/26 00:14:29;;;;;;;8.60;3.20;;;;;;;17.36;77.98;101183.94;5079451;28;20052;-82
2022/07/26 00:16:55;;;;;;;11.03;3.57;;;;;;;17.38;77.84;101188.09;5079751;28;20040;-82
2022/07/26 00:19:20;;;;;;;10.13;3.30;;;;;;;17.36;78.12;101190.22;5079309;28;20044;-81
2022/07/26 00:21:45;;;;;;;12.67;3.40;;;;;;;17.35;77.92;101198.69;5079281;28;20381;-82
2022/07/26 00:24:11;;;;;;;10.93;3.30;;;;;;;17.34;78.28;101191.59;5079699;28;20036;-81
2022/07/26 00:26:37;;;;;;;8.40;3.50;;;;;;;17.32;78.31;101183.59;5079685;28;20031;-81
2022/07/26 00:29:04;;;;;;;9.27;3.13;;;;;;;17.33;78.48;101196.22;5079518;28;20035;-81
2022/07/26 00:31:30;;;;;;;9.17;3.20;;;;;;;17.31;78.39;101192.91;5079359;28;20473;-81
2022/07/26 00:33:56;;;;;;;12.70;3.30;;;;;;;17.29;78.58;101194.22;5078940;28;20150;-81
2022/07/26 00:36:21;;;;;;;9.20;3.20;;;;;;;17.20;78.86;101185.56;5078886;28;20051;-82
2022/07/26 00:38:46;;;;;;;8.83;3.10;;;;;;;17.26;78.50;101187.34;5078852;28;21140;-82
2022/07/26 00:41:12;;;;;;;11.67;3.20;;;;;;;17.15;78.67;101180.03;5061235;28;21273;-82
2022/07/26 00:43:52;;;;;;;9.83;3.23;;;;;;;17.25;78.66;101202.09;5077969;28;20088;-81
2022/07/26 00:46:18;;;;;;;12.70;3.17;;;;;;;17.25;79.04;101210.31;5079622;28;20169;-82
2022/07/26 00:48:43;;;;;;;7.43;3.20;;;;;;;17.14;79.05;101189.31;5077913;28;20422;-82
2022/07/26 00:51:08;;;;;;;10.20;3.37;;;;;;;17.22;79.24;101208.09;5060034;28;20032;-82
2022/07/26 00:53:34;;;;;;;8.87;3.40;;;;;;;17.21;79.31;101200.94;5078922;28;20040;-83
2022/07/26 00:55:59;;;;;;;8.60;3.07;;;;;;;17.17;79.48;101202.50;5078709;28;20587;-82
2022/07/26 00:58:24;;;;;;;11.03;3.50;;;;;;;17.21;79.66;101206.41;5059541;28;20139;-83
2022/07/26 01:00:50;;;;;;;10.10;3.50;;;;;;;17.15;79.96;101194.53;5078861;28;20038;-82
2022/07/26 01:03:15;;;;;;;12.10;3.90;;;;;;;17.12;80.47;101186.84;5072380;28;20031;-82
2022/07/26 01:05:41;;;;;;;9.83;3.30;;;;;;;17.11;80.62;101190.66;5059534;28;20476;-82
2022/07/26 01:08:06;;;;;;;11.27;3.60;;;;;;;17.08;80.49;101185.66;5078366;28;20032;-82
2022/07/26 01:10:32;;;;;;;12.33;3.60;;;;;;;17.10;80.83;101188.16;5078689;28;20116;-81
2022/07/26 01:12:57;;;;;;;10.60;3.70;;;;;;;17.10;80.90;101190.91;5078800;28;20168;-82
2022/07/26 01:15:23;;;;;;;10.90;3.70;;;;;;;17.07;80.80;101191.38;5079049;28;20126;-82
2022/07/26 01:17:48;;;;;;;11.27;3.50;;;;;;;17.10;80.97;101196.38;5077752;28;20042;-82
2022/07/26 01:20:14;;;;;;;11.00;3.53;;;;;;;17.06;80.73;101190.56;5078427;28;20127;-82
2022/07/26 01:22:40;;;;;;;12.93;3.70;;;;;;;17.07;81.10;101191.38;5077026;28;20036;-83
2022/07/26 01:25:06;;;;;;;9.93;3.30;;;;;;;17.07;81.11;101191.38;5078667;28;20036;-81
2022/07/26 01:27:37;;;;;;;8.53;3.23;;;;;;;17.02;81.10;101182.00;5077646;28;20066;-81
2022/07/26 01:30:04;;;;;;;9.50;3.03;;;;;;;17.03;81.33;101191.88;5078533;28;21493;-82
2022/07/26 01:32:29;;;;;;;9.90;3.20;;;;;;;16.99;81.44;101185.22;5077825;28;20146;-82
2022/07/26 01:34:55;;;;;;;9.10;3.53;;;;;;;17.00;81.58;101192.38;5078115;28;20031;-82
2022/07/26 01:37:20;;;;;;;11.20;4.17;;;;;;;17.00;82.21;101191.56;5078896;28;20036;-81
2022/07/26 01:39:45;;;;;;;8.60;3.40;;;;;;;16.95;81.79;101199.66;5078068;28;20036;-81
2022/07/26 01:42:11;;;;;;;13.03;3.50;;;;;;;16.98;82.37;101186.28;5078296;28;20035;-82
2022/07/26 01:44:36;;;;;;;10.90;3.67;;;;;;;16.95;82.81;101195.00;5077077;28;20119;-82
2022/07/26 01:47:02;;;;;;;11.17;3.53;;;;;;;16.95;82.96;101195.00;5078270;28;20044;-82
2022/07/26 01:49:27;;;;;;;10.87;3.70;;;;;;;16.95;83.09;101185.97;5078471;28;20036;-82
2022/07/26 01:51:53;;;;;;;12.57;3.73;;;;;;;16.92;83.46;101191.94;5078280;28;20032;-82
2022/07/26 01:54:18;;;;;;;13.50;3.60;;;;;;;16.91;83.51;101191.09;5078233;28;20123;-81
2022/07/26 01:56:43;;;;;;;9.77;3.60;;;;;;;16.92;83.70;101200.97;5077857;28;20044;-82
2022/07/26 01:59:09;;;;;;;10.87;4.13;;;;;;;16.82;83.85;101176.97;5077679;28;20502;-82
2022/07/26 02:01:34;;;;;;;10.97;3.60;;;;;;;16.92;83.88;101191.94;5077644;28;20455;-82
2022/07/26 02:03:59;;;;;;;12.40;3.70;;;;;;;16.92;84.25;101200.13;5079423;28;20044;-81
2022/07/26 02:06:25;;;;;;;12.23;3.77;;;;;;;16.90;84.45;101192.19;5081854;28;20044;-82
2022/07/26 02:08:50;;;;;;;11.87;4.03;;;;;;;16.93;84.26;101202.66;5062191;28;20072;-81
2022/07/26 02:11:16;;;;;;;12.23;3.70;;;;;;;16.93;84.72;101197.19;5081835;28;20040;-82
2022/07/26 02:13:41;;;;;;;10.47;3.53;;;;;;;16.91;84.81;101201.22;5081805;28;20476;-82
2022/07/26 02:16:12;;;;;;;10.63;4.10;;;;;;;16.87;85.36;101198.94;5082420;28;20036;-82
2022/07/26 02:18:39;;;;;;;14.00;4.10;;;;;;;16.92;85.34;101205.59;5082069;28;20475;-82
2022/07/26 02:21:05;;;;;;;11.73;3.90;;;;;;;16.86;85.35;101194.56;5081837;28;20060;-82
2022/07/26 02:23:31;;;;;;;11.37;3.90;;;;;;;16.90;85.43;101189.44;5081979;28;20051;-81
2022/07/26 02:25:56;;;;;;;13.73;4.77;;;;;;;16.91;85.82;101202.06;5081609;28;21295;-82
2022/07/26 02:28:22;;;;;;;13.80;4.57;;;;;;;16.88;86.08;101200.59;5081655;28;20452;-82
2022/07/26 02:30:49;;;;;;;13.53;4.40;;;;;;;16.89;86.40;101196.00;5081280;28;20051;-82
2022/07/26 02:33:15;;;;;;;12.17;4.63;;;;;;;16.90;86.53;101203.13;5080820;28;20043;-81
2022/07/26 02:35:41;;;;;;;12.53;4.57;;;;;;;16.91;86.56;101204.78;5081396;28;20363;-82
2022/07/26 02:38:12;;;;;;;14.53;4.80;;;;;;;16.91;86.63;101210.25;5081189;28;20032;-82
2022/07/26 02:40:39;;;;;;;13.77;4.77;;;;;;;16.93;86.58;101204.53;5081764;28;20107;-82
2022/07/26 02:43:06;;;;;;;14.70;4.70;;;;;;;16.94;87.02;101214.41;5081147;28;20593;-82
2022/07/26 02:45:31;;;;;;;16.20;4.93;;;;;;;16.94;86.94;101217.16;5079447;28;20035;-82
2022/07/26 02:47:57;;;;;;;13.07;4.50;;;;;;;16.92;87.05;101217.41;5081025;28;20495;-82
2022/07/26 02:50:24;;;;;;;16.83;5.07;;;;;;;16.92;87.10;101220.16;5081032;28;20036;-83
2022/07/26 02:52:50;;;;;;;14.03;5.07;;;;;;;16.92;87.36;101214.66;5081573;28;20062;-82
2022/07/26 02:55:18;;;;;;;15.70;4.90;;;;;;;16.83;87.45;101205.16;5079398;28;20048;-82
2022/07/26 02:57:43;;;;;;;14.40;4.80;;;;;;;16.88;87.66;101216.19;5081522;28;20048;-81
2022/07/26 03:00:10;;;;;;;16.33;4.90;;;;;;;16.87;87.66;101220.81;5080934;28;20093;-82
2022/07/26 03:02:36;;;;;;;17.87;5.33;;;;;;;16.88;87.90;101224.41;5080706;28;20036;-82
2022/07/26 03:05:03;;;;;;;15.10;4.83;;;;;;;16.81;88.20;101220.97;5074730;28;20039;-82
2022/07/26 03:07:28;;;;;;;15.40;5.23;;;;;;;16.84;88.57;101237.75;5062273;28;20554;-82
2022/07/26 03:09:54;;;;;;;16.07;4.90;;;;;;;16.81;89.04;101235.50;5081115;28;20036;-82
2022/07/26 03:12:19;;;;;;;18.13;4.93;;;;;;;16.79;89.34;101229.44;5062702;28;20064;-82
2022/07/26 03:14:44;;;;;;;17.43;5.37;;;;;;;16.81;89.20;101237.41;5081013;28;20781;-82
2022/07/26 03:17:10;;;;;;;14.13;5.10;;;;;;;16.81;89.31;101237.41;5080017;28;20040;-82
2022/07/26 03:19:35;;;;;;;14.30;5.33;;;;;;;16.80;89.28;101241.22;5080316;28;20383;-83
2022/07/26 03:22:00;;;;;;;21.73;6.57;;;;;;;16.76;89.72;101245.53;5062659;28;20122;-81
2022/07/26 03:24:26;;;;;;;14.00;5.30;;;;;;;16.69;89.83;101235.53;5080574;28;20092;-83
2022/07/26 03:26:51;;;;;;;16.40;5.73;;;;;;;16.74;89.82;101255.88;5080615;28;20071;-82
2022/07/26 03:29:16;;;;;;;16.83;5.27;;;;;;;16.70;90.18;101241.88;5080905;28;20481;-81
2022/07/26 03:31:42;;;;;;;18.73;5.47;;;;;;;16.69;90.28;101245.66;5061837;28;20547;-82
2022/07/26 03:34:07;;;;;;;14.43;5.03;;;;;;;16.67;90.56;101243.19;5080367;28;20057;-82
2022/07/26 03:36:32;;;;;;;16.20;5.50;;;;;;;16.68;90.70;101250.28;5061228;28;20039;-81
2022/07/26 03:38:58;;;;;;;21.57;5.57;;;;;;;16.62;90.66;101251.28;5080163;28;20052;-81
2022/07/26 03:41:23;;;;;;;16.70;5.70;;;;;;;16.66;90.93;101262.56;5062056;28;20120;-81
2022/07/26 03:43:48;;;;;;;15.70;5.57;;;;;;;16.66;90.98;101259.84;5079858;28;20081;-82
2022/07/26 03:46:14;;;;;;;16.93;5.77;;;;;;;16.61;91.20;101260.53;5079179;28;20043;-82
2022/07/26 03:48:39;;;;;;;16.53;5.07;;;;;;;16.62;91.38;101270.44;5080059;28;20036;-81
2022/07/26 03:51:05;;;;;;;14.67;5.47;;;;;;;16.59;91.36;101261.84;5080436;28;20120;-81
2022/07/26 03:53:30;;;;;;;18.00;5.63;;;;;;;16.58;91.58;101271.13;5080333;28;20103;-81
2022/07/26 03:58:39;;;;;;;17.65;6.05;;;;;;;16.54;91.96;101271.63;5080036;28;20349;-81
2022/07/26 04:01:05;;;;;;;17.50;5.73;;;;;;;16.53;92.03;101266.41;5080540;28;20085;-82
2022/07/26 04:03:30;;;;;;;16.50;5.93;;;;;;;16.53;92.42;101263.66;5079727;28;20032;-81
2022/07/26 04:05:56;;;;;;;19.13;5.90;;;;;;;16.55;92.55;101277.94;5079892;28;20089;-81
2022/07/26 04:08:21;;;;;;;21.57;6.53;;;;;;;16.51;92.70;101268.56;5079409;28;20115;-82
2022/07/26 04:10:50;;;;;;;17.27;6.47;;;;;;;16.56;93.02;101285.06;5079119;28;20055;-82
2022/07/26 04:13:16;;;;;;;17.57;6.00;;;;;;;16.53;92.95;101277.34;5079795;28;20035;-82
2022/07/26 04:15:41;;;;;;;18.20;6.67;;;;;;;16.53;93.39;101275.41;5079322;28;20039;-81
2022/07/26 04:18:06;;;;;;;20.33;6.03;;;;;;;16.57;93.23;101273.03;5079274;28;20039;-81
2022/07/26 04:20:32;;;;;;;18.80;6.13;;;;;;;16.61;93.33;101281.63;5079004;28;21502;-82
2022/07/26 04:22:57;;;;;;;19.03;6.30;;;;;;;16.62;93.34;101275.91;5079574;28;20127;-81
2022/07/26 04:25:23;;;;;;;18.87;6.40;;;;;;;16.65;93.02;101280.06;5073056;28;20054;-82
2022/07/26 04:27:48;;;;;;;21.53;6.50;;;;;;;16.65;93.35;101278.13;5078817;28;20145;-82
2022/07/26 04:30:13;;;;;;;19.73;6.40;;;;;;;16.69;93.15;101286.72;5079421;28;20164;-82
2022/07/26 04:32:39;;;;;;;19.20;6.23;;;;;;;16.71;93.28;101292.75;5079189;28;20899;-81
2022/07/26 04:35:05;;;;;;;17.87;5.83;;;;;;;16.68;93.44;101283.13;5079264;28;20210;-81
2022/07/26 04:37:33;;;;;;;19.63;6.13;;;;;;;16.70;93.36;101297.41;5078930;28;20418;-82
2022/07/26 04:39:58;;;;;;;18.80;6.33;;;;;;;16.75;93.46;101295.84;5079055;28;20525;-82
2022/07/26 04:42:24;;;;;;;21.60;6.67;;;;;;;16.69;93.14;101282.06;5078857;28;21376;-83
2022/07/26 04:44:49;;;;;;;16.20;6.13;;;;;;;16.79;92.98;101291.56;5078882;28;20142;-82
2022/07/26 04:47:14;;;;;;;18.83;6.50;;;;;;;16.78;93.02;101293.47;5079228;28;20051;-82
2022/07/26 04:49:40;;;;;;;16.80;6.23;;;;;;;16.79;92.82;101291.56;5078802;28;20081;-81
2022/07/26 04:52:05;;;;;;;15.50;5.63;;;;;;;16.78;93.02;101293.47;5079076;28;20051;-82
2022/07/26 04:54:30;;;;;;;20.33;6.33;;;;;;;16.77;93.04;101293.69;5058873;28;20440;-82
2022/07/26 04:56:56;;;;;;;19.20;6.33;;;;;;;16.77;93.13;101301.88;5057114;28;20039;-81
2022/07/26 04:59:21;;;;;;;16.73;6.13;;;;;;;16.75;93.11;101304.06;5078779;28;20131;-81
2022/07/26 05:01:47;;;;;;;19.50;6.43;;;;;;;16.77;93.00;101307.38;5078103;28;20611;-81
2022/07/26 05:04:12;;;;;;;16.83;6.20;;;;;;;16.76;93.03;101305.72;5060433;28;20038;-82
2022/07/26 05:06:37;;;;;;;18.67;6.60;;;;;;;16.74;93.03;101305.13;5072537;28;20503;-81
2022/07/26 05:09:03;;;;;;;16.93;6.23;;;;;;;16.76;93.12;101312.00;5078824;28;20464;-82
2022/07/26 05:11:29;;;;;;;17.10;6.23;;;;;;;16.74;93.29;101303.25;5078636;28;20039;-82
2022/07/26 05:13:54;;;;;;;18.27;6.43;;;;;;;16.81;93.11;101314.88;5078837;28;20531;-82
2022/07/26 05:16:19;;;;;;;18.40;5.93;;;;;;;16.85;93.03;101309.75;5078595;28;20052;-82
2022/07/26 05:18:45;;;;;;;19.93;6.30;;;;;;;16.85;93.01;101302.34;5078440;28;20044;-82
2022/07/26 05:21:10;;;;;;;20.03;6.80;;;;;;;16.94;92.88;101319.25;5078216;28;20043;-82
2022/07/26 05:23:36;;;;;;;16.97;6.10;;;;;;;16.90;92.55;101309.03;5078734;28;20036;-81
2022/07/26 05:26:01;;;;;;;19.30;6.73;;;;;;;16.97;92.60;101315.19;5078470;28;20519;-82
2022/07/26 05:28:26;;;;;;;17.60;6.13;;;;;;;17.04;92.41;101330.41;5058869;28;20039;-81
2022/07/26 05:30:52;;;;;;;18.13;6.47;;;;;;;17.06;92.21;101335.63;5078510;28;20435;-82
2022/07/26 05:33:17;;;;;;;19.87;6.90;;;;;;;17.12;92.11;101333.84;5078169;28;20044;-81
2022/07/26 05:35:43;;;;;;;19.77;6.77;;;;;;;17.14;91.97;101331.69;5078203;28;20551;-82
2022/07/26 05:38:08;;;;;;;19.00;6.67;;;;;;;17.19;91.94;101331.81;5077824;28;20580;-81
2022/07/26 05:40:33;;;;;;;19.40;6.70;;;;;;;17.24;91.69;101334.63;5058553;28;20035;-82
2022/07/26 05:42:59;;;;;;;18.87;6.97;;;;;;;17.28;91.31;101337.69;5078132;28;20489;-82
2022/07/26 05:45:24;;;;;;;16.20;6.60;;;;;;;17.28;91.25;101329.50;5078458;28;20055;-81
2022/07/26 05:47:50;;;;;;;19.00;6.87;;;;;;;17.36;91.48;101340.88;5078412;28;20032;-82
2022/07/26 05:50:15;;;;;;;19.40;7.70;;;;;;;17.43;91.85;101331.69;5078179;28;20222;-82
2022/07/26 05:52:41;;;;;;;23.03;7.50;;;;;;;17.50;90.72;101351.53;5077757;28;20042;-83
2022/07/26 05:55:07;;;;;;;19.33;6.70;;;;;;;17.53;90.24;101342.84;5078362;28;20036;-82
2022/07/26 05:57:32;;;;;;;18.43;6.60;;;;;;;17.60;90.29;101342.66;5078267;28;20067;-82
2022/07/26 05:59:57;;;;;;;19.10;6.90;;;;;;;17.62;89.65;101346.81;5077579;28;20493;-82
2022/07/26 06:02:23;;;;;;;17.00;6.40;;;;;;;17.72;89.52;101352.47;5080075;28;20220;-81
2022/07/26 06:04:48;;;;;;;17.10;6.47;;;;;;;17.79;88.46;101351.47;5082138;28;20372;-84
2022/07/26 06:07:14;;;;;;;13.40;6.10;;;;;;;17.83;87.78;101352.69;5084586;28;20147;-82
2022/07/26 06:09:40;;;;;;;19.23;6.47;;;;;;;17.94;88.67;101360.00;5080536;28;20032;-81
2022/07/26 06:12:05;;;;;;;16.03;6.20;;;;;;;17.96;88.36;101349.59;5081716;28;20786;-81
2022/07/26 06:14:31;;;;;;;15.80;6.03;;;;;;;18.14;87.44;101356.78;5099123;28;20050;-82
2022/07/26 06:16:56;;;;;;;16.03;5.50;;;;;;;18.21;85.70;101353.88;5088969;28;20091;-82
2022/07/26 06:19:21;;;;;;;14.57;5.63;;;;;;;18.26;85.29;101361.31;5077461;28;20043;-82
2022/07/26 06:21:47;;;;;;;14.77;5.43;;;;;;;18.30;85.30;101368.78;5077493;28;20032;-83
2022/07/26 06:24:12;;;;;;;14.30;5.40;;;;;;;18.37;84.25;101363.97;5078086;28;20240;-83
2022/07/26 06:26:38;;;;;;;14.07;5.07;;;;;;;18.32;83.23;101352.94;5077799;28;20040;-83
2022/07/26 06:29:04;;;;;;;14.77;5.27;;;;;;;18.41;82.79;101369.78;5078169;28;20036;-82
2022/07/26 06:31:29;;;;;;;12.20;4.97;;;;;;;18.46;82.99;101367.13;5092072;28;20490;-82
2022/07/26 06:33:55;;;;;;;16.93;5.70;;;;;;;18.42;81.67;101360.47;5097240;28;20050;-83
2022/07/26 06:36:21;;;;;;;14.83;5.77;;;;;;;18.55;82.33;101370.28;5077386;28;20142;-82
2022/07/26 06:38:46;;;;;;;12.13;5.97;;;;;;;18.56;82.88;101353.56;5073323;28;20052;-83
2022/07/26 06:41:12;;;;;;;21.47;7.10;;;;;;;18.65;82.61;101375.88;5078069;28;20039;-83
2022/07/26 06:43:37;;;;;;;18.40;7.20;;;;;;;18.61;82.02;101376.66;5077908;28;20044;-83
2022/07/26 06:46:02;;;;;;;18.70;6.73;;;;;;;18.59;82.48;101378.81;5077959;28;20114;-83
2022/07/26 06:48:28;;;;;;;14.10;6.23;;;;;;;18.62;82.35;101381.88;5077539;28;20044;-82
2022/07/26 06:50:53;;;;;;;15.90;6.30;;;;;;;18.63;81.62;101389.03;5080547;28;20032;-83
2022/07/26 06:53:19;;;;;;;14.17;6.47;;;;;;;18.61;81.93;101382.16;5080959;28;20046;-83
2022/07/26 06:55:44;;;;;;;14.20;6.40;;;;;;;18.68;82.30;101391.03;5081239;28;20119;-83
2022/07/26 06:58:09;;;;;;;14.52;6.38;;;;;;;18.70;81.98;101392.44;5075324;28;20043;-83
2022/07/26 07:00:35;;;;;;;15.77;6.10;;;;;;;18.66;79.66;101390.47;5062298;28;20226;-84
2022/07/26 07:03:00;;;;;;;14.10;5.63;;;;;;;18.69;80.08;101403.66;5081790;28;20047;-83
2022/07/26 07:05:25;;;;;;;17.83;6.60;;;;;;;18.69;79.65;101398.19;5062959;28;20040;-83
2022/07/26 07:07:51;;;;;;;16.80;5.33;;;;;;;18.63;78.90;101405.50;5079290;28;20092;-83
2022/07/26 07:10:16;;;;;;;14.37;4.37;;;;;;;18.58;78.31;101408.19;5080497;28;20118;-83
2022/07/26 07:12:43;;;;;;;8.93;4.10;;;;;;;18.57;77.08;101412.00;5080674;28;21411;-84
2022/07/26 07:15:09;;;;;;;14.48;4.43;;;;;;;18.60;77.54;101407.91;5062973;28;20483;-83
2022/07/26 07:17:35;;;;;;;7.83;3.70;;;;;;;18.75;77.32;101405.38;5081231;28;20361;-84
2022/07/26 07:20:02;;;;;;;9.77;4.00;;;;;;;18.79;76.78;101402.97;5080664;28;20047;-84
2022/07/26 07:22:27;;;;;;;18.07;4.77;;;;;;;18.86;77.51;101398.97;5081120;28;20681;-84
2022/07/26 07:24:53;;;;;;;9.63;4.40;;;;;;;18.86;77.77;101409.09;5080393;28;20100;-84
2022/07/26 07:27:18;;;;;;;11.82;4.07;;;;;;;18.94;77.26;101407.88;5080694;28;20135;-83
2022/07/26 07:29:44;;;;;;;14.77;4.50;;;;;;;18.94;76.27;101407.88;5080786;28;20463;-83
2022/07/26 07:32:09;;;;;;;10.18;3.92;;;;;;;18.96;75.29;101408.44;5073547;28;20101;-84
2022/07/26 07:34:34;;;;;;;11.63;4.00;;;;;;;19.09;74.46;101418.22;5080617;28;20421;-84
2022/07/26 07:37:00;;;;;;;10.07;3.67;;;;;;;19.27;74.35;101417.91;5079829;28;20047;-84
2022/07/26 07:39:25;;;;;;;10.20;4.00;;;;;;;19.37;73.26;101408.97;5080602;28;20050;-83
2022/07/26 07:41:51;;;;;;;10.05;3.75;;;;;;;19.36;73.24;101413.59;5061498;28;20048;-86
2022/07/26 07:44:16;;;;;;;12.55;3.95;;;;;;;19.38;73.51;101419.69;5094235;28;20039;-83
2022/07/26 07:46:42;;;;;;;12.02;3.97;;;;;;;19.27;73.93;101423.41;5097681;28;20151;-84
2022/07/26 07:49:09;;;;;;;11.27;3.70;;;;;;;19.14;74.77;101427.34;5081086;28;20624;-82
2022/07/26 07:51:34;;;;;;;15.32;4.28;;;;;;;18.99;77.84;101436.22;5080296;28;20043;-83
2022/07/26 07:53:59;;;;;;;14.73;4.60;;;;;;;18.70;81.50;101444.59;5080856;28;20333;-85
2022/07/26 07:56:25;;;;;;;8.70;3.20;;;;;;;18.47;80.92;101436.56;5080284;28;20534;-84
2022/07/26 07:58:50;;;;;;;8.10;2.43;;;;;;;18.25;80.42;101444.69;5080284;28;20066;-84
2022/07/26 08:01:16;;;;;;;4.27;1.70;;;;;;;18.04;82.91;101444.34;5078896;28;20401;-84
2022/07/26 08:03:41;;;;;;;2.17;1.50;;;;;;;17.83;87.33;101448.59;5080361;28;20640;-84
2022/07/26 08:06:08;;;;;;;2.40;1.30;;;;;;;17.75;86.90;101452.56;5080356;28;20040;-83
2022/07/26 08:08:35;;;;;;;5.60;1.83;;;;;;;17.75;88.13;101451.72;5080709;28;21102;-84
2022/07/26 08:11:00;;;;;;;3.07;1.40;;;;;;;17.66;85.96;101448.53;5080489;28;20035;-84
2022/07/26 08:13:25;;;;;;;3.97;1.57;;;;;;;17.79;87.32;101461.09;5062313;28;20388;-83
2022/07/26 08:15:52;;;;;;;1.80;1.33;;;;;;;17.91;89.72;101464.66;5080274;28;20422;-83
2022/07/26 08:18:19;;;;;;;1.93;1.17;;;;;;;18.09;89.17;101460.03;5079593;28;20039;-83
2022/07/26 08:20:44;;;;;;;3.13;1.30;;;;;;;18.05;88.73;101466.03;5079965;28;20038;-83
2022/07/26 08:23:10;;;;;;;4.50;1.37;;;;;;;18.09;88.83;101471.00;5071472;28;20036;-84
2022/07/26 08:25:35;;;;;;;3.53;1.30;;;;;;;18.05;87.91;101476.16;5079919;28;20111;-83
2022/07/26 08:28:00;;;;;;;2.07;1.40;;;;;;;17.99;85.87;101469.78;5061687;28;20035;-83
2022/07/26 08:30:26;;;;;;;1.73;1.27;;;;;;;18.03;86.36;101479.16;5079709;28;20078;-84
2022/07/26 08:32:51;;;;;;;1.80;1.00;;;;;;;18.10;84.60;101483.66;5079145;28;20058;-85
2022/07/26 08:35:16;;;;;;;2.83;1.00;;;;;;;18.14;83.96;101477.44;5078802;28;20043;-85
2022/07/26 08:37:42;;;;;;;4.23;1.13;;;;;;;18.31;86.95;101482.09;5079190;28;20544;-84
2022/07/26 08:40:07;;;;;;;2.70;1.30;;;;;;;18.37;85.25;101479.19;5079593;28;20044;-85
2022/07/26 08:42:33;;;;;;;2.30;1.50;;;;;;;18.37;84.29;101492.91;5076168;28;20040;-84
2022/07/26 08:44:58;;;;;;;2.83;1.17;;;;;;;18.29;82.71;101492.47;5073689;28;21753;-84
2022/07/26 08:47:24;;;;;;;2.77;1.10;;;;;;;18.25;82.88;101496.78;5074820;28;20490;-84
2022/07/26 08:49:49;;;;;;;2.53;1.60;;;;;;;18.33;84.74;101494.50;5075367;28;20050;-84
2022/07/26 08:52:15;;;;;;;3.37;1.43;;;;;;;18.47;84.16;101505.16;5075166;28;21345;-83
2022/07/26 08:54:45;;;;;;;3.30;1.50;;;;;;;18.43;81.47;101510.28;5075051;28;20039;-84
2022/07/26 08:57:11;;;;;;;4.18;1.70;;;;;;;18.68;80.91;101503.56;5073641;28;20028;-84
2022/07/26 08:59:36;;;;;;;3.83;1.53;;;;;;;18.94;83.91;101507.53;5073487;28;20135;-86
2022/07/26 09:02:05;;;;;;;4.85;1.90;;;;;;;19.09;80.70;101514.34;5072926;28;20464;-83
2022/07/26 09:04:35;;;;;;;5.55;1.70;;;;;;;19.17;80.00;101511.16;5074119;28;20032;-85
2022/07/26 09:07:14;;;;;;;3.80;1.20;;;;;;;19.18;79.38;101521.91;5073480;28;20056;-83
2022/07/26 09:10:01;;;;;;;4.13;1.27;;;;;;;19.29;80.43;101513.81;5073031;28;20046;-84
2022/07/26 09:12:29;;;;;;;4.30;1.48;;;;;;;19.13;78.58;101519.06;5055033;28;20705;-84
2022/07/26 09:14:55;;;;;;;5.00;1.90;;;;;;;19.24;77.90;101517.31;5074379;28;20121;-84
2022/07/26 09:17:23;;;;;;;3.55;1.60;;;;;;;19.81;79.69;101518.03;5073397;28;20042;-85
2022/07/26 09:20:06;;;;;;;5.38;1.92;;;;;;;20.34;78.55;101524.63;5051875;28;20040;-84
2022/07/26 09:22:32;;;;;;;7.50;1.55;;;;;;;20.47;77.22;101523.38;5073837;28;20371;-84
2022/07/26 09:24:57;;;;;;;3.58;1.70;;;;;;;20.69;74.83;101530.75;5072026;28;20349;-84
2022/07/26 09:27:23;;;;;;;6.32;1.85;;;;;;;20.56;73.73;101534.72;5073532;28;20415;-83
2022/07/26 09:29:50;;;;;;;4.82;1.80;;;;;;;20.54;71.04;101535.00;5073849;28;20046;-84
2022/07/26 09:32:21;;;;;;;6.90;2.20;;;;;;;20.50;72.40;101530.28;5073301;28;20024;-84
2022/07/26 09:34:52;;;;;;;5.30;2.10;;;;;;;20.34;72.18;101543.06;5067803;28;20044;-84
2022/07/26 09:37:30;;;;;;;5.20;1.75;;;;;;;20.32;72.58;101535.09;5072905;28;20055;-83
2022/07/26 09:39:59;;;;;;;4.88;1.73;;;;;;;20.38;73.60;101547.78;5053471;28;20044;-85
2022/07/26 09:42:25;;;;;;;4.97;1.50;;;;;;;20.45;73.32;101550.31;5054480;28;20039;-85
2022/07/26 09:44:51;;;;;;;3.17;1.33;;;;;;;20.12;71.87;101534.88;5073032;28;20539;-84
2022/07/26 09:47:16;;;;;;;3.90;1.80;;;;;;;20.02;69.62;101557.63;5073369;28;20085;-85
2022/07/26 09:49:42;;;;;;;3.13;1.48;;;;;;;20.16;71.37;101556.09;5073833;28;20032;-84
2022/07/26 09:52:18;;;;;;;3.40;1.30;;;;;;;20.36;70.84;101552.72;5053360;28;20036;-83
2022/07/26 09:54:45;;;;;;;2.10;1.40;;;;;;;20.24;69.90;101547.38;5074393;28;20652;-84
2022/07/26 09:57:17;;;;;;;3.05;1.45;;;;;;;20.26;67.60;101557.31;5074185;28;20035;-84
2022/07/26 09:59:43;;;;;;;2.80;1.50;;;;;;;20.24;69.23;101554.81;5073653;28;20067;-85
2022/07/26 10:02:09;;;;;;;3.00;1.50;;;;;;;20.21;68.27;101558.09;5072962;28;21420;-84
2022/07/26 10:04:34;;;;;;;2.60;1.50;;;;;;;20.32;65.89;101551.59;5073167;28;20040;-84
2022/07/26 10:07:01;;;;;;;1.70;1.20;;;;;;;20.78;69.78;101561.38;5072527;28;20052;-84
2022/07/26 10:09:36;;;;;;;4.57;1.90;;;;;;;20.94;67.87;101560.41;5073745;28;20028;-84
2022/07/26 10:12:06;;;;;;;4.55;1.55;;;;;;;21.02;69.32;101564.59;5072336;28;20554;-84
2022/07/26 10:14:35;;;;;;;3.55;1.48;;;;;;;21.39;67.34;101564.56;5072851;28;20039;-84
2022/07/26 10:17:26;;;;;;;2.30;1.10;;;;;;;21.50;66.67;101561.84;5073593;28;20043;-84
2022/07/26 10:19:56;;;;;;;2.78;1.17;;;;;;;21.25;62.76;101561.41;5085269;28;20028;-85
2022/07/26 10:22:22;;;;;;;3.10;1.00;;;;;;;21.22;64.81;101545.44;5086320;28;20027;-84
2022/07/26 10:24:47;;;;;;;2.22;1.10;;;;;;;21.42;65.40;101564.00;5088350;28;20031;-84
2022/07/26 10:27:39;;;;;;;2.00;1.10;;;;;;;21.33;65.65;101571.13;5086515;28;20043;-84
2022/07/26 10:30:17;;;;;;;3.65;1.10;;;;;;;21.47;63.77;101560.44;5057753;28;20054;-84
2022/07/26 10:33:09;;;;;;;2.50;0.90;;;;;;;21.81;65.11;101564.75;5075766;28;20879;-85
2022/07/26 10:35:43;;;;;;;2.30;0.90;;;;;;;22.19;63.61;101571.75;5075641;28;20040;-86
2022/07/26 10:38:20;;;;;;;2.90;1.13;;;;;;;21.99;61.42;101571.72;5076567;28;20353;-85
2022/07/26 10:41:03;;;;;;;2.28;1.20;;;;;;;21.95;61.71;101576.97;5076557;28;20624;-83
2022/07/26 10:43:29;;;;;;;2.65;1.23;;;;;;;21.86;61.01;101579.41;5075876;28;20361;-84
2022/07/26 10:46:17;;;;;;;4.00;1.08;;;;;;;21.88;62.82;101581.88;5076195;28;20032;-83
2022/07/26 10:49:05;;;;;;;2.83;1.33;;;;;;;22.06;63.18;101573.13;5076497;28;20035;-85
2022/07/26 10:51:36;;;;;;;4.13;1.70;;;;;;;22.02;64.81;101585.00;5075971;28;20081;-83
2022/07/26 10:54:04;;;;;;;4.35;1.50;;;;;;;22.03;63.14;101581.94;5077021;28;20040;-84
2022/07/26 10:56:30;;;;;;;3.13;1.00;;;;;;;21.74;61.33;101582.38;5076121;28;20092;-84
2022/07/26 10:58:56;;;;;;;4.20;1.25;;;;;;;21.68;62.23;101582.66;5076146;28;20455;-83
2022/07/26 11:01:22;;;;;;;4.07;1.50;;;;;;;21.35;62.59;101574.47;5056422;28;20054;-84
2022/07/26 11:03:47;;;;;;;2.38;1.27;;;;;;;21.19;61.93;101592.00;5076354;28;20040;-85
2022/07/26 11:06:17;;;;;;;5.85;1.70;;;;;;;20.98;64.30;101593.75;5076158;28;20347;-83
2022/07/26 11:08:45;;;;;;;3.25;1.20;;;;;;;20.60;65.73;101601.13;5076555;28;20048;-83
2022/07/26 11:11:11;;;;;;;4.72;1.30;;;;;;;20.35;67.58;101603.34;5076178;28;20043;-82
2022/07/26 11:13:37;;;;;;;5.57;1.50;;;;;;;20.03;70.26;101608.78;5076613;28;20600;-83
2022/07/26 11:16:04;;;;;;;4.10;1.33;;;;;;;19.72;74.15;101611.94;5083708;28;20460;-83
2022/07/26 11:18:34;;;;;;;5.78;1.50;;;;;;;19.61;74.27;101607.41;5090621;28;20067;-82
2022/07/26 11:21:16;;;;;;;3.88;1.58;;;;;;;19.49;74.46;101614.94;5084907;28;20040;-83